Language: 


Des rapports , des résumés tant et plus, au choix de chacun....


Données Historiques de Météogheer
Journalier Rapport pour Janvier 2, 2018 Unitée:  Les deux    Impériale   Métrique
Suivant Jour »
Journalier Hebdomadaire Mensuel Annuel Sur mesure
  Max: Min: Moyenne:
Température: 52 °F /  11.1 °C 36 °F /  2.2 °C 44.4 °F /  6.9 °C
Point de rosée: 51.8 °F /  11.0 °C 33.8 °F /  1.0 °C 42.6 °F /  5.9 °C
Humidité: 98% 75% 92%
Vent: 17.7mph /  28.5km/h - 6.4mph /  10.3km/h
Rafales: 23.5mph /  37.8km/h - -
Vent- - SW
Pression: 29.9 in /  1013.1 hPa 29.4 in /  996.2 hPa -
Pluie: 0.05 in /  1.3 mm    
Historical Graphs
 
 
Données tabulaires pour Janvier 2, 2018
Heure Température Point de rosée Pression Vent Vent Rafales Humidité Pluie Taux (Horaire) Conditions
00:04 46.2 °F /  7.9 °C 41 °F /  5.0 °C 29.7in /  1005.0hPa West 15.7mph /  25.3km/h 19.2mph /  30.9km/h 81% 0in /  0.0mm
00:06 46.2 °F /  7.9 °C 41 °F /  5.0 °C 29.7in /  1005.0hPa WSW 9.8mph /  15.8km/h 19.5mph /  31.4km/h 81% 0in /  0.0mm
00:08 46.2 °F /  7.9 °C 41 °F /  5.0 °C 29.7in /  1005.0hPa West 7.4mph /  11.9km/h 19.5mph /  31.4km/h 81% 0in /  0.0mm
00:12 46.2 °F /  7.9 °C 41 °F /  5.0 °C 29.7in /  1005.0hPa West 12.8mph /  20.6km/h 19.5mph /  31.4km/h 81% 0in /  0.0mm
00:13 46.2 °F /  7.9 °C 41 °F /  5.0 °C 29.7in /  1005.0hPa WSW 13.9mph /  22.4km/h 19.5mph /  31.4km/h 81% 0in /  0.0mm
00:14 46.2 °F /  7.9 °C 41 °F /  5.0 °C 29.7in /  1005.0hPa West 14.1mph /  22.7km/h 19.5mph /  31.4km/h 81% 0in /  0.0mm
00:19 46.2 °F /  7.9 °C 41 °F /  5.0 °C 29.7in /  1005.0hPa West 10.1mph /  16.3km/h 19.5mph /  31.4km/h 80% 0in /  0.0mm
00:20 46.2 °F /  7.9 °C 41 °F /  5.0 °C 29.7in /  1005.0hPa West 15.4mph /  24.8km/h 19.5mph /  31.4km/h 80% 0in /  0.0mm
00:24 46.2 °F /  7.9 °C 41 °F /  5.0 °C 29.7in /  1005.0hPa West 14.1mph /  22.7km/h 19.5mph /  31.4km/h 80% 0in /  0.0mm
00:26 46.2 °F /  7.9 °C 41 °F /  5.0 °C 29.6in /  1003.9hPa WSW 13.4mph /  21.6km/h 19.5mph /  31.4km/h 79% 0in /  0.0mm
00:31 46.2 °F /  7.9 °C 41 °F /  5.0 °C 29.6in /  1003.9hPa WSW 15.4mph /  24.8km/h 19.2mph /  30.9km/h 79% 0in /  0.0mm
00:36 46.2 °F /  7.9 °C 39.2 °F /  4.0 °C 29.6in /  1003.9hPa WSW 10.5mph /  16.9km/h 19.2mph /  30.9km/h 78% 0in /  0.0mm
00:41 46 °F /  7.8 °C 39.2 °F /  4.0 °C 29.7in /  1005.0hPa WSW 15.4mph /  24.8km/h 17.2mph /  27.7km/h 78% 0in /  0.0mm
00:44 46 °F /  7.8 °C 39.2 °F /  4.0 °C 29.7in /  1005.0hPa West 11mph /  17.7km/h 15.7mph /  25.3km/h 78% 0in /  0.0mm
00:49 46 °F /  7.8 °C 39.2 °F /  4.0 °C 29.7in /  1005.0hPa West 17.7mph /  28.5km/h 19.7mph /  31.7km/h 77% 0in /  0.0mm
00:54 45.9 °F /  7.7 °C 39.2 °F /  4.0 °C 29.7in /  1005.0hPa WNW 10.1mph /  16.3km/h 19.7mph /  31.7km/h 78% 0in /  0.0mm
00:59 45.9 °F /  7.7 °C 39.2 °F /  4.0 °C 29.7in /  1005.0hPa West 7.6mph /  12.2km/h 17.7mph /  28.5km/h 78% 0in /  0.0mm
01:01 45.9 °F /  7.7 °C 39.2 °F /  4.0 °C 29.7in /  1005.0hPa WSW 14.5mph /  23.3km/h 16.6mph /  26.7km/h 78% 0in /  0.0mm
01:06 45.9 °F /  7.7 °C 39.2 °F /  4.0 °C 29.7in /  1005.0hPa West 6.5mph /  10.5km/h 16.6mph /  26.7km/h 79% 0in /  0.0mm
01:11 45.7 °F /  7.6 °C 41 °F /  5.0 °C 29.7in /  1006.0hPa WSW 7.6mph /  12.2km/h 14.8mph /  23.8km/h 80% 0in /  0.0mm
01:12 45.7 °F /  7.6 °C 41 °F /  5.0 °C 29.7in /  1006.0hPa West 15.4mph /  24.8km/h 15.4mph /  24.8km/h 80% 0in /  0.0mm
01:17 45.5 °F /  7.5 °C 41 °F /  5.0 °C 29.7in /  1006.0hPa West 10.1mph /  16.3km/h 15.4mph /  24.8km/h 81% 0in /  0.0mm
01:20 45.5 °F /  7.5 °C 41 °F /  5.0 °C 29.7in /  1006.0hPa WSW 17.4mph /  28.0km/h 17.4mph /  28.0km/h 82% 0in /  0.0mm
01:22 45.5 °F /  7.5 °C 41 °F /  5.0 °C 29.7in /  1006.0hPa WSW 12.8mph /  20.6km/h 17.4mph /  28.0km/h 82% 0in /  0.0mm
01:27 45.7 °F /  7.6 °C 41 °F /  5.0 °C 29.7in /  1006.0hPa WSW 12.1mph /  19.5km/h 22.6mph /  36.4km/h 81% 0in /  0.0mm
01:31 45.7 °F /  7.6 °C 41 °F /  5.0 °C 29.7in /  1006.0hPa West 13mph /  20.9km/h 22.6mph /  36.4km/h 81% 0in /  0.0mm
01:32 45.7 °F /  7.6 °C 41 °F /  5.0 °C 29.7in /  1006.0hPa West 15.4mph /  24.8km/h 22.6mph /  36.4km/h 81% 0in /  0.0mm
01:37 46 °F /  7.8 °C 39.2 °F /  4.0 °C 29.7in /  1006.0hPa West 10.7mph /  17.2km/h 16.1mph /  25.9km/h 79% 0in /  0.0mm
01:39 46 °F /  7.8 °C 39.2 °F /  4.0 °C 29.7in /  1006.0hPa West 10.5mph /  16.9km/h 16.3mph /  26.2km/h 78% 0in /  0.0mm
01:44 46 °F /  7.8 °C 39.2 °F /  4.0 °C 29.7in /  1007.0hPa West 8.1mph /  13.0km/h 18.6mph /  29.9km/h 78% 0in /  0.0mm
01:49 46.2 °F /  7.9 °C 39.2 °F /  4.0 °C 29.7in /  1007.0hPa NW 8.1mph /  13.0km/h 18.6mph /  29.9km/h 76% 0in /  0.0mm
01:54 46.2 °F /  7.9 °C 39.2 °F /  4.0 °C 29.7in /  1007.0hPa West 10.7mph /  17.2km/h 16.3mph /  26.2km/h 76% 0in /  0.0mm
01:55 46.2 °F /  7.9 °C 39.2 °F /  4.0 °C 29.7in /  1007.0hPa West 11mph /  17.7km/h 16.3mph /  26.2km/h 76% 0in /  0.0mm
01:56 46.2 °F /  7.9 °C 39.2 °F /  4.0 °C 29.7in /  1007.0hPa West 6mph /  9.7km/h 15.4mph /  24.8km/h 76% 0in /  0.0mm
02:01 46.2 °F /  7.9 °C 39.2 °F /  4.0 °C 29.7in /  1007.0hPa West 5.6mph /  9.0km/h 15.2mph /  24.5km/h 76% 0in /  0.0mm
02:03 46.2 °F /  7.9 °C 39.2 °F /  4.0 °C 29.7in /  1007.0hPa WNW 15.2mph /  24.5km/h 15.2mph /  24.5km/h 76% 0in /  0.0mm
02:05 46.2 °F /  7.9 °C 39.2 °F /  4.0 °C 29.7in /  1007.0hPa West 9.6mph /  15.4km/h 15.2mph /  24.5km/h 76% 0in /  0.0mm
02:10 46.2 °F /  7.9 °C 39.2 °F /  4.0 °C 29.7in /  1007.0hPa West 4.9mph /  7.9km/h 15.2mph /  24.5km/h 76% 0in /  0.0mm
02:13 46.2 °F /  7.9 °C 39.2 °F /  4.0 °C 29.7in /  1007.0hPa WSW 5.6mph /  9.0km/h 15.2mph /  24.5km/h 75% 0in /  0.0mm
02:16 46.2 °F /  7.9 °C 39.2 °F /  4.0 °C 29.7in /  1007.0hPa West 11.4mph /  18.3km/h 15.2mph /  24.5km/h 75% 0in /  0.0mm
02:21 46.2 °F /  7.9 °C 39.2 °F /  4.0 °C 29.7in /  1007.0hPa WSW 8.7mph /  14.0km/h 15.2mph /  24.5km/h 75% 0in /  0.0mm
02:23 46.2 °F /  7.9 °C 39.2 °F /  4.0 °C 29.7in /  1007.0hPa West 9.6mph /  15.4km/h 14.3mph /  23.0km/h 75% 0in /  0.0mm
02:24 46.2 °F /  7.9 °C 39.2 °F /  4.0 °C 29.7in /  1007.0hPa WNW 11mph /  17.7km/h 14.3mph /  23.0km/h 75% 0in /  0.0mm
02:28 46.2 °F /  7.9 °C 39.2 °F /  4.0 °C 29.7in /  1007.0hPa West 5.8mph /  9.3km/h 13.9mph /  22.4km/h 75% 0in /  0.0mm
02:33 46.2 °F /  7.9 °C 39.2 °F /  4.0 °C 29.7in /  1007.0hPa West 7.4mph /  11.9km/h 14.1mph /  22.7km/h 75% 0in /  0.0mm
02:36 46.2 °F /  7.9 °C 39.2 °F /  4.0 °C 29.7in /  1007.0hPa West 10.3mph /  16.6km/h 14.1mph /  22.7km/h 75% 0in /  0.0mm
02:37 46 °F /  7.8 °C 39.2 °F /  4.0 °C 29.7in /  1007.0hPa WSW 3.8mph /  6.1km/h 14.1mph /  22.7km/h 75% 0in /  0.0mm
02:41 46 °F /  7.8 °C 39.2 °F /  4.0 °C 29.8in /  1008.0hPa WSW 8.5mph /  13.7km/h 14.8mph /  23.8km/h 76% 0in /  0.0mm
02:46 45.9 °F /  7.7 °C 39.2 °F /  4.0 °C 29.8in /  1008.0hPa West 5.8mph /  9.3km/h 14.8mph /  23.8km/h 76% 0in /  0.0mm
02:51 45.9 °F /  7.7 °C 39.2 °F /  4.0 °C 29.8in /  1008.0hPa West 8.7mph /  14.0km/h 16.3mph /  26.2km/h 76% 0in /  0.0mm
02:56 45.9 °F /  7.7 °C 39.2 °F /  4.0 °C 29.8in /  1010.0hPa West 6.5mph /  10.5km/h 16.3mph /  26.2km/h 77% 0in /  0.0mm
02:58 45.9 °F /  7.7 °C 39.2 °F /  4.0 °C 29.8in /  1010.0hPa West 7.4mph /  11.9km/h 16.3mph /  26.2km/h 77% 0in /  0.0mm
03:03 45.9 °F /  7.7 °C 39.2 °F /  4.0 °C 29.8in /  1010.0hPa West 8.9mph /  14.3km/h 12.3mph /  19.8km/h 77% 0in /  0.0mm
03:04 45.9 °F /  7.7 °C 39.2 °F /  4.0 °C 29.8in /  1010.0hPa South 4.9mph /  7.9km/h 12.3mph /  19.8km/h 77% 0in /  0.0mm
03:09 45.9 °F /  7.7 °C 39.2 °F /  4.0 °C 29.8in /  1010.0hPa West 7.6mph /  12.2km/h 12.3mph /  19.8km/h 77% 0in /  0.0mm
03:10 45.9 °F /  7.7 °C 39.2 °F /  4.0 °C 29.8in /  1010.0hPa SSW 4mph /  6.4km/h 12.3mph /  19.8km/h 77% 0in /  0.0mm
03:15 45.7 °F /  7.6 °C 39.2 °F /  4.0 °C 29.8in /  1009.0hPa WNW 5.8mph /  9.3km/h 11.2mph /  18.0km/h 78% 0in /  0.0mm
03:20 45.7 °F /  7.6 °C 39.2 °F /  4.0 °C 29.8in /  1009.0hPa West 7.6mph /  12.2km/h 12.1mph /  19.5km/h 78% 0in /  0.0mm
03:23 45.7 °F /  7.6 °C 39.2 °F /  4.0 °C 29.8in /  1009.0hPa WSW 6.5mph /  10.5km/h 12.3mph /  19.8km/h 78% 0in /  0.0mm
03:28 45.5 °F /  7.5 °C 39.2 °F /  4.0 °C 29.8in /  1009.0hPa West 5.8mph /  9.3km/h 12.5mph /  20.1km/h 78% 0in /  0.0mm
03:31 45.5 °F /  7.5 °C 39.2 °F /  4.0 °C 29.8in /  1009.0hPa WSW 2.7mph /  4.3km/h 12.5mph /  20.1km/h 78% 0in /  0.0mm
03:36 45.3 °F /  7.4 °C 39.2 °F /  4.0 °C 29.8in /  1009.0hPa West 6.5mph /  10.5km/h 10.7mph /  17.2km/h 78% 0in /  0.0mm
03:37 45.1 °F /  7.3 °C 39.2 °F /  4.0 °C 29.8in /  1009.0hPa West 5.8mph /  9.3km/h 12.1mph /  19.5km/h 78% 0in /  0.0mm
03:43 45 °F /  7.2 °C 39.2 °F /  4.0 °C 29.8in /  1009.0hPa West 7.8mph /  12.6km/h 14.8mph /  23.8km/h 79% 0in /  0.0mm
03:44 45 °F /  7.2 °C 39.2 °F /  4.0 °C 29.8in /  1009.0hPa WNW 6.5mph /  10.5km/h 14.8mph /  23.8km/h 79% 0in /  0.0mm
03:50 44.8 °F /  7.1 °C 39.2 °F /  4.0 °C 29.8in /  1009.0hPa West 6.5mph /  10.5km/h 12.3mph /  19.8km/h 79% 0in /  0.0mm
03:55 44.4 °F /  6.9 °C 39.2 °F /  4.0 °C 29.8in /  1009.0hPa West 6mph /  9.7km/h 12.3mph /  19.8km/h 80% 0in /  0.0mm
04:00 44.2 °F /  6.8 °C 39.2 °F /  4.0 °C 29.8in /  1009.0hPa WSW 5.6mph /  9.0km/h 10.7mph /  17.2km/h 80% 0in /  0.0mm
04:02 44.1 °F /  6.7 °C 39.2 °F /  4.0 °C 29.8in /  1009.0hPa WSW 5.6mph /  9.0km/h 9.2mph /  14.8km/h 80% 0in /  0.0mm
04:07 44.1 °F /  6.7 °C 39.2 °F /  4.0 °C 29.8in /  1009.0hPa West 3.8mph /  6.1km/h 10.5mph /  16.9km/h 80% 0in /  0.0mm
04:15 43.5 °F /  6.4 °C 37.4 °F /  3.0 °C 29.8in /  1009.0hPa West 7.6mph /  12.2km/h 9.8mph /  15.8km/h 81% 0in /  0.0mm
04:20 43.2 °F /  6.2 °C 39.2 °F /  4.0 °C 29.8in /  1009.0hPa WSW 6.7mph /  10.8km/h 8.7mph /  14.0km/h 82% 0in /  0.0mm
04:22 43.2 °F /  6.2 °C 39.2 °F /  4.0 °C 29.8in /  1009.0hPa WSW 6.5mph /  10.5km/h 8.7mph /  14.0km/h 82% 0in /  0.0mm
04:27 43 °F /  6.1 °C 37.4 °F /  3.0 °C 29.8in /  1009.0hPa WSW 6.5mph /  10.5km/h 9.6mph /  15.4km/h 83% 0in /  0.0mm
04:34 42.8 °F /  6.0 °C 39.2 °F /  4.0 °C 29.8in /  1009.0hPa WSW 7.4mph /  11.9km/h 8.7mph /  14.0km/h 84% 0in /  0.0mm
04:39 42.6 °F /  5.9 °C 39.2 °F /  4.0 °C 29.8in /  1009.0hPa WSW 6mph /  9.7km/h 8.7mph /  14.0km/h 84% 0in /  0.0mm
04:44 42.4 °F /  5.8 °C 39.2 °F /  4.0 °C 29.8in /  1010.0hPa WSW 5.4mph /  8.7km/h 8.1mph /  13.0km/h 85% 0in /  0.0mm
04:49 42.3 °F /  5.7 °C 39.2 °F /  4.0 °C 29.8in /  1010.0hPa WSW 4mph /  6.4km/h 8.1mph /  13.0km/h 85% 0in /  0.0mm
04:51 42.3 °F /  5.7 °C 39.2 °F /  4.0 °C 29.8in /  1010.0hPa WSW 4.3mph /  6.9km/h 8.1mph /  13.0km/h 85% 0in /  0.0mm
04:55 42.1 °F /  5.6 °C 39.2 °F /  4.0 °C 29.8in /  1010.0hPa West 7.8mph /  12.6km/h 8.1mph /  13.0km/h 85% 0in /  0.0mm
05:00 41.9 °F /  5.5 °C 39.2 °F /  4.0 °C 29.8in /  1010.0hPa WSW 0.9mph /  1.4km/h 7.8mph /  12.6km/h 86% 0in /  0.0mm
05:01 41.9 °F /  5.5 °C 39.2 °F /  4.0 °C 29.8in /  1010.0hPa WSW 4.9mph /  7.9km/h 7.8mph /  12.6km/h 86% 0in /  0.0mm
05:06 41.7 °F /  5.4 °C 37.4 °F /  3.0 °C 29.8in /  1010.0hPa WSW 4.9mph /  7.9km/h 7.6mph /  12.2km/h 86% 0in /  0.0mm
05:07 41.5 °F /  5.3 °C 37.4 °F /  3.0 °C 29.8in /  1010.0hPa West 6.5mph /  10.5km/h 7.6mph /  12.2km/h 86% 0in /  0.0mm
05:12 41.5 °F /  5.3 °C 37.4 °F /  3.0 °C 29.8in /  1010.0hPa West 6.5mph /  10.5km/h 6.5mph /  10.5km/h 86% 0in /  0.0mm
05:13 41.5 °F /  5.3 °C 37.4 °F /  3.0 °C 29.8in /  1010.0hPa West 3.6mph /  5.8km/h 6.5mph /  10.5km/h 86% 0in /  0.0mm
05:18 41.5 °F /  5.3 °C 39.2 °F /  4.0 °C 29.8in /  1010.0hPa West 5.8mph /  9.3km/h 7.6mph /  12.2km/h 87% 0in /  0.0mm
05:19 41.5 °F /  5.3 °C 39.2 °F /  4.0 °C 29.8in /  1010.0hPa WSW 2.7mph /  4.3km/h 7.6mph /  12.2km/h 87% 0in /  0.0mm
05:21 41.5 °F /  5.3 °C 39.2 °F /  4.0 °C 29.8in /  1010.0hPa West 6mph /  9.7km/h 10.3mph /  16.6km/h 87% 0in /  0.0mm
05:26 41.7 °F /  5.4 °C 39.2 °F /  4.0 °C 29.9in /  1011.1hPa West 3.1mph /  5.0km/h 10.3mph /  16.6km/h 88% 0in /  0.0mm
05:28 41.7 °F /  5.4 °C 39.2 °F /  4.0 °C 29.9in /  1011.1hPa West 6.5mph /  10.5km/h 10.3mph /  16.6km/h 88% 0in /  0.0mm
05:33 41.5 °F /  5.3 °C 39.2 °F /  4.0 °C 29.9in /  1011.1hPa West 6.9mph /  11.1km/h 8.7mph /  14.0km/h 88% 0in /  0.0mm
05:38 41.4 °F /  5.2 °C 37.4 °F /  3.0 °C 29.9in /  1011.1hPa SSW 6.5mph /  10.5km/h 8.7mph /  14.0km/h 88% 0in /  0.0mm
05:42 41.2 °F /  5.1 °C 37.4 °F /  3.0 °C 29.9in /  1011.1hPa WSW 7.6mph /  12.2km/h 8.7mph /  14.0km/h 88% 0in /  0.0mm
05:44 41.2 °F /  5.1 °C 37.4 °F /  3.0 °C 29.9in /  1011.1hPa WSW 6.3mph /  10.1km/h 8.7mph /  14.0km/h 88% 0in /  0.0mm
05:47 41.2 °F /  5.1 °C 37.4 °F /  3.0 °C 29.9in /  1011.1hPa West 5.6mph /  9.0km/h 8.7mph /  14.0km/h 88% 0in /  0.0mm
05:51 41.2 °F /  5.1 °C 37.4 °F /  3.0 °C 29.9in /  1011.1hPa WSW 5.6mph /  9.0km/h 8.7mph /  14.0km/h 88% 0in /  0.0mm
05:56 41 °F /  5.0 °C 37.4 °F /  3.0 °C 29.9in /  1011.1hPa Calm   8.9mph /  14.3km/h 88% 0in /  0.0mm
06:01 41 °F /  5.0 °C 37.4 °F /  3.0 °C 29.9in /  1011.1hPa West 4.7mph /  7.6km/h 8.9mph /  14.3km/h 88% 0in /  0.0mm
06:02 40.8 °F /  4.9 °C 37.4 °F /  3.0 °C 29.9in /  1011.1hPa West 5.6mph /  9.0km/h 8.9mph /  14.3km/h 89% 0in /  0.0mm
06:04 40.8 °F /  4.9 °C 37.4 °F /  3.0 °C 29.9in /  1011.1hPa West 5.4mph /  8.7km/h 8.9mph /  14.3km/h 89% 0in /  0.0mm
06:08 40.6 °F /  4.8 °C 37.4 °F /  3.0 °C 29.9in /  1011.1hPa West 7.6mph /  12.2km/h 8.5mph /  13.7km/h 89% 0in /  0.0mm
06:12 40.6 °F /  4.8 °C 37.4 °F /  3.0 °C 29.9in /  1011.1hPa West 5.8mph /  9.3km/h 8.7mph /  14.0km/h 90% 0in /  0.0mm
06:13 40.6 °F /  4.8 °C 37.4 °F /  3.0 °C 29.9in /  1011.1hPa WSW 4.7mph /  7.6km/h 8.7mph /  14.0km/h 90% 0in /  0.0mm
06:18 40.5 °F /  4.7 °C 37.4 °F /  3.0 °C 29.9in /  1011.1hPa West 3.8mph /  6.1km/h 7.8mph /  12.6km/h 90% 0in /  0.0mm
06:23 40.3 °F /  4.6 °C 37.4 °F /  3.0 °C 29.9in /  1011.1hPa WSW 1.6mph /  2.6km/h 7.6mph /  12.2km/h 90% 0in /  0.0mm
06:28 40.1 °F /  4.5 °C 37.4 °F /  3.0 °C 29.8in /  1010.0hPa WSW 3.1mph /  5.0km/h 6.5mph /  10.5km/h 90% 0in /  0.0mm
06:33 39.9 °F /  4.4 °C 37.4 °F /  3.0 °C 29.8in /  1010.0hPa West 1.3mph /  2.1km/h 6.5mph /  10.5km/h 90% 0in /  0.0mm
06:34 39.9 °F /  4.4 °C 37.4 °F /  3.0 °C 29.8in /  1010.0hPa West 2.9mph /  4.7km/h 6mph /  9.7km/h 90% 0in /  0.0mm
06:40 39.7 °F /  4.3 °C 37.4 °F /  3.0 °C 29.8in /  1010.0hPa WSW 4.9mph /  7.9km/h 6mph /  9.7km/h 90% 0in /  0.0mm
06:41 39.7 °F /  4.3 °C 37.4 °F /  3.0 °C 29.8in /  1010.0hPa West 3.1mph /  5.0km/h 6.3mph /  10.1km/h 90% 0in /  0.0mm
06:46 39.7 °F /  4.3 °C 37.4 °F /  3.0 °C 29.8in /  1010.0hPa West 6.3mph /  10.1km/h 7.6mph /  12.2km/h 91% 0in /  0.0mm
06:48 39.7 °F /  4.3 °C 37.4 °F /  3.0 °C 29.8in /  1010.0hPa West 6.3mph /  10.1km/h 7.6mph /  12.2km/h 91% 0in /  0.0mm
06:53 39.7 °F /  4.3 °C 37.4 °F /  3.0 °C 29.8in /  1010.0hPa West 4.9mph /  7.9km/h 7.6mph /  12.2km/h 92% 0in /  0.0mm
06:58 39.6 °F /  4.2 °C 37.4 °F /  3.0 °C 29.8in /  1010.0hPa West 5.8mph /  9.3km/h 7.6mph /  12.2km/h 92% 0in /  0.0mm
06:59 39.6 °F /  4.2 °C 37.4 °F /  3.0 °C 29.8in /  1010.0hPa West 5.8mph /  9.3km/h 7.6mph /  12.2km/h 92% 0in /  0.0mm
07:04 39.4 °F /  4.1 °C 37.4 °F /  3.0 °C 29.8in /  1010.0hPa WSW 2.7mph /  4.3km/h 6.5mph /  10.5km/h 93% 0in /  0.0mm
07:05 39.4 °F /  4.1 °C 37.4 °F /  3.0 °C 29.8in /  1010.0hPa Calm   6mph /  9.7km/h 93% 0in /  0.0mm
07:10 39.2 °F /  4.0 °C 37.4 °F /  3.0 °C 29.9in /  1011.1hPa West 3.6mph /  5.8km/h 6mph /  9.7km/h 93% 0in /  0.0mm
07:11 39.2 °F /  4.0 °C 37.4 °F /  3.0 °C 29.9in /  1011.1hPa West 4.3mph /  6.9km/h 6mph /  9.7km/h 93% 0in /  0.0mm
07:16 39.2 °F /  4.0 °C 37.4 °F /  3.0 °C 29.9in /  1011.1hPa West 3.1mph /  5.0km/h 4.9mph /  7.9km/h 93% 0in /  0.0mm
07:18 39.2 °F /  4.0 °C 37.4 °F /  3.0 °C 29.9in /  1011.1hPa Calm   4.9mph /  7.9km/h 93% 0in /  0.0mm
07:23 38.8 °F /  3.8 °C 37.4 °F /  3.0 °C 29.9in /  1011.1hPa West 4mph /  6.4km/h 5.4mph /  8.7km/h 93% 0in /  0.0mm
07:26 38.8 °F /  3.8 °C 37.4 °F /  3.0 °C 29.8in /  1010.0hPa West 3.4mph /  5.5km/h 5.4mph /  8.7km/h 93% 0in /  0.0mm
07:31 38.7 °F /  3.7 °C 37.4 °F /  3.0 °C 29.8in /  1010.0hPa NW 1.1mph /  1.8km/h 4.7mph /  7.6km/h 93% 0in /  0.0mm
07:35 38.5 °F /  3.6 °C 37.4 °F /  3.0 °C 29.8in /  1010.0hPa NW 2.7mph /  4.3km/h 3.8mph /  6.1km/h 93% 0in /  0.0mm
07:40 38.3 °F /  3.5 °C 37.4 °F /  3.0 °C 29.8in /  1010.0hPa Calm   3.1mph /  5.0km/h 93% 0in /  0.0mm
07:41 38.1 °F /  3.4 °C 37.4 °F /  3.0 °C 29.9in /  1011.1hPa Calm   3.1mph /  5.0km/h 93% 0in /  0.0mm
07:46 38.1 °F /  3.4 °C 37.4 °F /  3.0 °C 29.9in /  1011.1hPa Calm     94% 0in /  0.0mm
07:47 38.1 °F /  3.4 °C 37.4 °F /  3.0 °C 29.9in /  1011.1hPa Calm     94% 0in /  0.0mm
07:53 38.1 °F /  3.4 °C 37.4 °F /  3.0 °C 29.9in /  1011.1hPa WSW 3.6mph /  5.8km/h 3.6mph /  5.8km/h 94% 0in /  0.0mm
07:56 38.1 °F /  3.4 °C 37.4 °F /  3.0 °C 29.9in /  1012.1hPa West 3.4mph /  5.5km/h 4.3mph /  6.9km/h 94% 0in /  0.0mm
08:01 38.1 °F /  3.4 °C 37.4 °F /  3.0 °C 29.9in /  1012.1hPa Calm   4.7mph /  7.6km/h 95% 0in /  0.0mm
08:03 37.9 °F /  3.3 °C 37.4 °F /  3.0 °C 29.9in /  1012.1hPa West 3.1mph /  5.0km/h 4.7mph /  7.6km/h 95% 0in /  0.0mm
08:05 37.9 °F /  3.3 °C 37.4 °F /  3.0 °C 29.9in /  1012.1hPa Calm   4.7mph /  7.6km/h 95% 0in /  0.0mm
08:09 37.9 °F /  3.3 °C 37.4 °F /  3.0 °C 29.9in /  1012.1hPa WSW 3.4mph /  5.5km/h 3.6mph /  5.8km/h 95% 0in /  0.0mm
08:14 37.9 °F /  3.3 °C 37.4 °F /  3.0 °C 29.9in /  1013.1hPa WSW 2.7mph /  4.3km/h 4.3mph /  6.9km/h 95% 0in /  0.0mm
08:15 37.9 °F /  3.3 °C 37.4 °F /  3.0 °C 29.9in /  1013.1hPa Calm   4.3mph /  6.9km/h 95% 0in /  0.0mm
08:20 37.9 °F /  3.3 °C 37.4 °F /  3.0 °C 29.9in /  1013.1hPa Calm   4.3mph /  6.9km/h 95% 0in /  0.0mm
08:25 37.9 °F /  3.3 °C 37.4 °F /  3.0 °C 29.9in /  1013.1hPa West 3.8mph /  6.1km/h 3.8mph /  6.1km/h 95% 0in /  0.0mm
08:27 37.9 °F /  3.3 °C 37.4 °F /  3.0 °C 29.9in /  1013.1hPa West 4.3mph /  6.9km/h 4.3mph /  6.9km/h 95% 0in /  0.0mm
08:32 38.1 °F /  3.4 °C 37.4 °F /  3.0 °C 29.9in /  1013.1hPa Calm   4.3mph /  6.9km/h 96% 0in /  0.0mm
08:33 38.1 °F /  3.4 °C 37.4 °F /  3.0 °C 29.9in /  1013.1hPa Calm   4.3mph /  6.9km/h 96% 0in /  0.0mm
08:38 37.9 °F /  3.3 °C 37.4 °F /  3.0 °C 29.9in /  1013.1hPa Calm   4.3mph /  6.9km/h 96% 0in /  0.0mm
08:43 37.6 °F /  3.1 °C 37.4 °F /  3.0 °C 29.9in /  1013.1hPa Calm   4.3mph /  6.9km/h 95% 0in /  0.0mm
08:44 37.6 °F /  3.1 °C 37.4 °F /  3.0 °C 29.9in /  1013.1hPa Calm   4.3mph /  6.9km/h 95% 0in /  0.0mm
08:50 37 °F /  2.8 °C 37.4 °F /  3.0 °C 29.9in /  1013.1hPa Calm     95% 0in /  0.0mm
08:55 36.7 °F /  2.6 °C 35.6 °F /  2.0 °C 29.9in /  1013.1hPa Calm   0.9mph /  1.4km/h 94% 0in /  0.0mm
08:58 36.5 °F /  2.5 °C 35.6 °F /  2.0 °C 29.9in /  1013.1hPa Calm   0.9mph /  1.4km/h 94% 0in /  0.0mm
09:00 36.3 °F /  2.4 °C 35.6 °F /  2.0 °C 29.9in /  1013.1hPa Calm   0.9mph /  1.4km/h 94% 0in /  0.0mm
09:09 36 °F /  2.2 °C 33.8 °F /  1.0 °C 29.9in /  1013.1hPa Calm     94% 0in /  0.0mm
09:12 36 °F /  2.2 °C 35.6 °F /  2.0 °C 29.9in /  1013.1hPa Calm     95% 0in /  0.0mm
09:17 36.1 °F /  2.3 °C 35.6 °F /  2.0 °C 29.9in /  1013.1hPa Calm     95% 0in /  0.0mm
09:19 36.1 °F /  2.3 °C 35.6 °F /  2.0 °C 29.9in /  1013.1hPa Calm     95% 0in /  0.0mm
09:24 36.5 °F /  2.5 °C 37.4 °F /  3.0 °C 29.9in /  1013.1hPa Calm   2.7mph /  4.3km/h 96% 0in /  0.0mm
09:29 36.9 °F /  2.7 °C 37.4 °F /  3.0 °C 29.9in /  1013.1hPa Calm   2.7mph /  4.3km/h 97% 0in /  0.0mm
09:32 37 °F /  2.8 °C 37.4 °F /  3.0 °C 29.9in /  1013.1hPa Calm     97% 0in /  0.0mm
09:37 36.9 °F /  2.7 °C 37.4 °F /  3.0 °C 29.9in /  1013.1hPa Calm     97% 0in /  0.0mm
09:38 37 °F /  2.8 °C 37.4 °F /  3.0 °C 29.9in /  1013.1hPa Calm     97% 0in /  0.0mm
09:43 37.2 °F /  2.9 °C 37.4 °F /  3.0 °C 29.9in /  1013.1hPa Calm     97% 0in /  0.0mm
09:49 37.4 °F /  3.0 °C 37.4 °F /  3.0 °C 29.9in /  1013.1hPa Calm     97% 0in /  0.0mm
09:54 37.9 °F /  3.3 °C 37.4 °F /  3.0 °C 29.9in /  1013.1hPa WSW 2.5mph /  4.0km/h 2.5mph /  4.0km/h 98% 0in /  0.0mm
09:59 38.3 °F /  3.5 °C 39.2 °F /  4.0 °C 29.9in /  1013.1hPa Calm   2.7mph /  4.3km/h 98% 0in /  0.0mm
10:01 38.5 °F /  3.6 °C 39.2 °F /  4.0 °C 29.9in /  1013.1hPa WSW 1.1mph /  1.8km/h 2.7mph /  4.3km/h 98% 0in /  0.0mm
10:06 38.8 °F /  3.8 °C 39.2 °F /  4.0 °C 29.9in /  1013.1hPa Calm   2.9mph /  4.7km/h 98% 0in /  0.0mm
10:11 39.2 °F /  4.0 °C 39.2 °F /  4.0 °C 29.9in /  1013.1hPa WSW 2.2mph /  3.5km/h 5.6mph /  9.0km/h 98% 0in /  0.0mm
10:13 39.4 °F /  4.1 °C 39.2 °F /  4.0 °C 29.9in /  1013.1hPa SSW 1.6mph /  2.6km/h 5.6mph /  9.0km/h 98% 0in /  0.0mm
10:18 39.9 °F /  4.4 °C 39.2 °F /  4.0 °C 29.9in /  1013.1hPa Calm   5.6mph /  9.0km/h 98% 0in /  0.0mm
10:21 40.1 °F /  4.5 °C 41 °F /  5.0 °C 29.9in /  1013.1hPa Calm   3.8mph /  6.1km/h 98% 0in /  0.0mm
10:25 40.3 °F /  4.6 °C 41 °F /  5.0 °C 29.9in /  1013.1hPa Calm     98% 0in /  0.0mm
10:30 40.6 °F /  4.8 °C 41 °F /  5.0 °C 29.9in /  1013.1hPa Calm     98% 0in /  0.0mm
10:32 40.6 °F /  4.8 °C 41 °F /  5.0 °C 29.9in /  1013.1hPa Calm     98% 0in /  0.0mm
10:37 40.8 °F /  4.9 °C 41 °F /  5.0 °C 29.9in /  1013.1hPa Calm   0.9mph /  1.4km/h 98% 0in /  0.0mm
10:38 40.8 °F /  4.9 °C 41 °F /  5.0 °C 29.9in /  1013.1hPa Calm   0.9mph /  1.4km/h 98% 0in /  0.0mm
10:41 41 °F /  5.0 °C 41 °F /  5.0 °C 29.9in /  1013.1hPa Calm   0.9mph /  1.4km/h 97% 0in /  0.0mm
10:44 41 °F /  5.0 °C 41 °F /  5.0 °C 29.9in /  1013.1hPa Calm   1.3mph /  2.1km/h 97% 0in /  0.0mm
10:47 41 °F /  5.0 °C 41 °F /  5.0 °C 29.9in /  1013.1hPa South 1.3mph /  2.1km/h 3.6mph /  5.8km/h 97% 0in /  0.0mm
10:52 41.2 °F /  5.1 °C 41 °F /  5.0 °C 29.9in /  1013.1hPa Calm   3.6mph /  5.8km/h 97% 0in /  0.0mm
10:56 41.4 °F /  5.2 °C 41 °F /  5.0 °C 29.9in /  1013.1hPa Calm   3.6mph /  5.8km/h 97% 0in /  0.0mm
10:58 41.4 °F /  5.2 °C 41 °F /  5.0 °C 29.9in /  1013.1hPa Calm     97% 0in /  0.0mm
11:03 41.5 °F /  5.3 °C 41 °F /  5.0 °C 29.9in /  1013.1hPa SW 3.4mph /  5.5km/h 4.9mph /  7.9km/h 97% 0in /  0.0mm
11:04 41.5 °F /  5.3 °C 41 °F /  5.0 °C 29.9in /  1013.1hPa SW 4mph /  6.4km/h 4.9mph /  7.9km/h 97% 0in /  0.0mm
11:08 41.7 °F /  5.4 °C 41 °F /  5.0 °C 29.9in /  1013.1hPa SSW 4mph /  6.4km/h 5.6mph /  9.0km/h 97% 0in /  0.0mm
11:09 41.7 °F /  5.4 °C 41 °F /  5.0 °C 29.9in /  1013.1hPa SW 4mph /  6.4km/h 5.6mph /  9.0km/h 97% 0in /  0.0mm
11:14 42.1 °F /  5.6 °C 42.8 °F /  6.0 °C 29.9in /  1013.1hPa SSW 2.2mph /  3.5km/h 5.6mph /  9.0km/h 96% 0in /  0.0mm
11:19 42.3 °F /  5.7 °C 42.8 °F /  6.0 °C 29.9in /  1013.1hPa WSW 4mph /  6.4km/h 6mph /  9.7km/h 96% 0in /  0.0mm
11:22 42.3 °F /  5.7 °C 42.8 °F /  6.0 °C 29.9in /  1013.1hPa Calm   6mph /  9.7km/h 96% 0in /  0.0mm
11:31 42.4 °F /  5.8 °C 42.8 °F /  6.0 °C 29.9in /  1013.1hPa SSW 3.4mph /  5.5km/h 5.6mph /  9.0km/h 95% 0in /  0.0mm
11:36 42.6 °F /  5.9 °C 41 °F /  5.0 °C 29.9in /  1013.1hPa WSW 7.4mph /  11.9km/h 7.4mph /  11.9km/h 94% 0in /  0.0mm
11:38 42.8 °F /  6.0 °C 41 °F /  5.0 °C 29.9in /  1013.1hPa SSW 5.6mph /  9.0km/h 7.4mph /  11.9km/h 93% 0in /  0.0mm
11:39 42.8 °F /  6.0 °C 41 °F /  5.0 °C 29.9in /  1013.1hPa SSW 5.8mph /  9.3km/h 7.4mph /  11.9km/h 93% 0in /  0.0mm
11:44 42.8 °F /  6.0 °C 41 °F /  5.0 °C 29.9in /  1013.1hPa SW 6mph /  9.7km/h 7.4mph /  11.9km/h 92% 0in /  0.0mm
11:49 43 °F /  6.1 °C 41 °F /  5.0 °C 29.9in /  1013.1hPa SW 3.8mph /  6.1km/h 8.5mph /  13.7km/h 92% 0in /  0.0mm
11:53 43 °F /  6.1 °C 41 °F /  5.0 °C 29.9in /  1013.1hPa SSW 5.8mph /  9.3km/h 8.5mph /  13.7km/h 91% 0in /  0.0mm
11:58 43.2 °F /  6.2 °C 41 °F /  5.0 °C 29.9in /  1013.1hPa SSW 7.4mph /  11.9km/h 7.8mph /  12.6km/h 91% 0in /  0.0mm
12:00 43.3 °F /  6.3 °C 41 °F /  5.0 °C 29.9in /  1013.1hPa SSW 5.8mph /  9.3km/h 7.8mph /  12.6km/h 91% 0in /  0.0mm
12:05 43.5 °F /  6.4 °C 41 °F /  5.0 °C 29.9in /  1013.1hPa Calm   7.6mph /  12.2km/h 91% 0in /  0.0mm
12:06 43.5 °F /  6.4 °C 41 °F /  5.0 °C 29.9in /  1013.1hPa SSW 6.3mph /  10.1km/h 7.6mph /  12.2km/h 91% 0in /  0.0mm
12:11 43.5 °F /  6.4 °C 41 °F /  5.0 °C 29.9in /  1012.1hPa WSW 4mph /  6.4km/h 6.3mph /  10.1km/h 91% 0in /  0.0mm
12:12 43.5 °F /  6.4 °C 41 °F /  5.0 °C 29.9in /  1012.1hPa SSW 5.6mph /  9.0km/h 6.3mph /  10.1km/h 91% 0in /  0.0mm
12:17 43.7 °F /  6.5 °C 42.8 °F /  6.0 °C 29.9in /  1012.1hPa Calm   6.7mph /  10.8km/h 91% 0in /  0.0mm
12:18 43.7 °F /  6.5 °C 42.8 °F /  6.0 °C 29.9in /  1012.1hPa Calm   6.7mph /  10.8km/h 91% 0in /  0.0mm
12:23 43.7 °F /  6.5 °C 41 °F /  5.0 °C 29.9in /  1012.1hPa SSW 5.4mph /  8.7km/h 7.4mph /  11.9km/h 90% 0in /  0.0mm
12:26 43.9 °F /  6.6 °C 41 °F /  5.0 °C 29.9in /  1012.1hPa SSW 3.6mph /  5.8km/h 7.4mph /  11.9km/h 90% 0in /  0.0mm
12:31 43.9 °F /  6.6 °C 41 °F /  5.0 °C 29.9in /  1012.1hPa SSW 1.6mph /  2.6km/h 6.5mph /  10.5km/h 90% 0in /  0.0mm
12:33 43.9 °F /  6.6 °C 41 °F /  5.0 °C 29.9in /  1012.1hPa South 3.6mph /  5.8km/h 6.5mph /  10.5km/h 90% 0in /  0.0mm
12:35 43.9 °F /  6.6 °C 41 °F /  5.0 °C 29.9in /  1012.1hPa SW 4.9mph /  7.9km/h 8.5mph /  13.7km/h 90% 0in /  0.0mm
12:39 44.1 °F /  6.7 °C 41 °F /  5.0 °C 29.9in /  1012.1hPa South 5.6mph /  9.0km/h 8.5mph /  13.7km/h 90% 0in /  0.0mm
12:44 43.9 °F /  6.6 °C 41 °F /  5.0 °C 29.9in /  1011.1hPa South 3.6mph /  5.8km/h 8.5mph /  13.7km/h 90% 0in /  0.0mm
12:45 43.9 °F /  6.6 °C 41 °F /  5.0 °C 29.9in /  1011.1hPa SSW 4.3mph /  6.9km/h 7.4mph /  11.9km/h 90% 0in /  0.0mm
12:50 43.9 °F /  6.6 °C 41 °F /  5.0 °C 29.9in /  1011.1hPa South 6.3mph /  10.1km/h 7.2mph /  11.6km/h 90% 0in /  0.0mm
12:55 43.9 °F /  6.6 °C 42.8 °F /  6.0 °C 29.9in /  1011.1hPa SSW 4.3mph /  6.9km/h 8.1mph /  13.0km/h 91% 0in /  0.0mm
12:58 43.9 °F /  6.6 °C 42.8 °F /  6.0 °C 29.9in /  1012.1hPa South 6mph /  9.7km/h 8.1mph /  13.0km/h 91% 0in /  0.0mm
13:00 44.1 °F /  6.7 °C 42.8 °F /  6.0 °C 29.9in /  1012.1hPa SSW 2.9mph /  4.7km/h 8.1mph /  13.0km/h 91% 0in /  0.0mm
13:05 44.1 °F /  6.7 °C 42.8 °F /  6.0 °C 29.9in /  1012.1hPa South 7.4mph /  11.9km/h 8.1mph /  13.0km/h 91% 0in /  0.0mm
13:07 44.1 °F /  6.7 °C 42.8 °F /  6.0 °C 29.9in /  1012.1hPa SSW 3.8mph /  6.1km/h 8.5mph /  13.7km/h 92% 0in /  0.0mm
13:12 44.1 °F /  6.7 °C 42.8 °F /  6.0 °C 29.9in /  1011.1hPa South 5.4mph /  8.7km/h 8.5mph /  13.7km/h 92% 0in /  0.0mm
13:15 44.1 °F /  6.7 °C 42.8 °F /  6.0 °C 29.9in /  1011.1hPa SSW 5.8mph /  9.3km/h 8.7mph /  14.0km/h 92% 0in /  0.0mm
13:19 44.2 °F /  6.8 °C 42.8 °F /  6.0 °C 29.9in /  1011.1hPa SSW 4.7mph /  7.6km/h 9.2mph /  14.8km/h 93% 0in /  0.0mm
13:24 44.2 °F /  6.8 °C 42.8 °F /  6.0 °C 29.9in /  1011.1hPa SSW 6.3mph /  10.1km/h 10.3mph /  16.6km/h 93% 0in /  0.0mm
13:25 44.2 °F /  6.8 °C 42.8 °F /  6.0 °C 29.9in /  1011.1hPa South 1.1mph /  1.8km/h 10.3mph /  16.6km/h 93% 0in /  0.0mm
13:30 44.2 °F /  6.8 °C 42.8 °F /  6.0 °C 29.9in /  1011.1hPa SSW 5.8mph /  9.3km/h 10.3mph /  16.6km/h 93% 0in /  0.0mm
13:33 44.2 °F /  6.8 °C 42.8 °F /  6.0 °C 29.9in /  1011.1hPa South 3.1mph /  5.0km/h 7.8mph /  12.6km/h 93% 0in /  0.0mm
13:38 44.4 °F /  6.9 °C 42.8 °F /  6.0 °C 29.9in /  1011.1hPa South 5.4mph /  8.7km/h 7.6mph /  12.2km/h 94% 0in /  0.0mm
13:41 44.6 °F /  7.0 °C 42.8 °F /  6.0 °C 29.9in /  1011.1hPa Calm   8.1mph /  13.0km/h 93% 0in /  0.0mm
13:46 44.6 °F /  7.0 °C 42.8 °F /  6.0 °C 29.9in /  1011.1hPa SSW 6mph /  9.7km/h 8.1mph /  13.0km/h 94% 0in /  0.0mm
13:47 44.6 °F /  7.0 °C 42.8 °F /  6.0 °C 29.9in /  1011.1hPa South 6.3mph /  10.1km/h 8.1mph /  13.0km/h 94% 0in /  0.0mm
13:52 44.6 °F /  7.0 °C 42.8 °F /  6.0 °C 29.9in /  1011.1hPa WSW 4.9mph /  7.9km/h 8.5mph /  13.7km/h 94% 0in /  0.0mm
13:54 44.6 °F /  7.0 °C 42.8 °F /  6.0 °C 29.9in /  1011.1hPa SSW 7.8mph /  12.6km/h 8.5mph /  13.7km/h 94% 0in /  0.0mm
13:59 44.8 °F /  7.1 °C 42.8 °F /  6.0 °C 29.9in /  1011.1hPa SSW 4.9mph /  7.9km/h 8.7mph /  14.0km/h 94% 0in /  0.0mm
14:03 44.8 °F /  7.1 °C 42.8 °F /  6.0 °C 29.9in /  1011.1hPa SSW 6mph /  9.7km/h 8.7mph /  14.0km/h 94% 0in /  0.0mm
14:05 44.8 °F /  7.1 °C 42.8 °F /  6.0 °C 29.9in /  1011.1hPa SSW 10.1mph /  16.3km/h 12.1mph /  19.5km/h 94% 0in /  0.0mm
14:10 44.8 °F /  7.1 °C 42.8 °F /  6.0 °C 29.9in /  1011.1hPa SW 4.9mph /  7.9km/h 12.1mph /  19.5km/h 94% 0in /  0.0mm
14:13 44.8 °F /  7.1 °C 42.8 °F /  6.0 °C 29.8in /  1010.0hPa WSW 7.4mph /  11.9km/h 12.1mph /  19.5km/h 94% 0in /  0.0mm
14:18 44.8 °F /  7.1 °C 42.8 °F /  6.0 °C 29.8in /  1010.0hPa SSW 4.9mph /  7.9km/h 10.5mph /  16.9km/h 95% 0in /  0.0mm
14:20 44.8 °F /  7.1 °C 42.8 °F /  6.0 °C 29.8in /  1010.0hPa SW 6.5mph /  10.5km/h 10.5mph /  16.9km/h 95% 0in /  0.0mm
14:25 44.6 °F /  7.0 °C 42.8 °F /  6.0 °C 29.8in /  1010.0hPa SSW 3.6mph /  5.8km/h 8.7mph /  14.0km/h 95% 0in /  0.0mm
14:28 44.6 °F /  7.0 °C 42.8 °F /  6.0 °C 29.8in /  1009.0hPa SW 6mph /  9.7km/h 8.7mph /  14.0km/h 95% 0in /  0.0mm
14:30 44.6 °F /  7.0 °C 42.8 °F /  6.0 °C 29.8in /  1009.0hPa SSW 3.4mph /  5.5km/h 7.6mph /  12.2km/h 95% 0in /  0.0mm
14:35 44.6 °F /  7.0 °C 44.6 °F /  7.0 °C 29.8in /  1009.0hPa SSW 6.5mph /  10.5km/h 7.8mph /  12.6km/h 96% 0in /  0.0mm
14:40 44.6 °F /  7.0 °C 44.6 °F /  7.0 °C 29.8in /  1009.0hPa SSW 3.8mph /  6.1km/h 7.8mph /  12.6km/h 96% 0in /  0.0mm
14:45 44.6 °F /  7.0 °C 44.6 °F /  7.0 °C 29.8in /  1008.0hPa SSW 3.1mph /  5.0km/h 6.3mph /  10.1km/h 96% 0in /  0.0mm
14:49 44.6 °F /  7.0 °C 44.6 °F /  7.0 °C 29.8in /  1008.0hPa South 4.9mph /  7.9km/h 7.2mph /  11.6km/h 96% 0in /  0.0mm
14:53 44.4 °F /  6.9 °C 44.6 °F /  7.0 °C 29.8in /  1008.0hPa SSW 5.8mph /  9.3km/h 7.8mph /  12.6km/h 97% 0in /  0.0mm
14:58 44.4 °F /  6.9 °C 44.6 °F /  7.0 °C 29.8in /  1009.0hPa South 2.7mph /  4.3km/h 7.8mph /  12.6km/h 97% 0in /  0.0mm
14:59 44.4 °F /  6.9 °C 44.6 °F /  7.0 °C 29.8in /  1009.0hPa South 4.7mph /  7.6km/h 7.8mph /  12.6km/h 97% 0in /  0.0mm
15:03 44.4 °F /  6.9 °C 44.6 °F /  7.0 °C 29.8in /  1009.0hPa SSW 5.6mph /  9.0km/h 8.1mph /  13.0km/h 97% 0in /  0.0mm
15:05 44.4 °F /  6.9 °C 44.6 °F /  7.0 °C 29.8in /  1009.0hPa South 3.4mph /  5.5km/h 8.1mph /  13.0km/h 97% 0in /  0.0mm
15:10 44.4 °F /  6.9 °C 44.6 °F /  7.0 °C 29.8in /  1009.0hPa South 11mph /  17.7km/h 11mph /  17.7km/h 98% 0in /  0.0mm
15:12 44.4 °F /  6.9 °C 44.6 °F /  7.0 °C 29.8in /  1009.0hPa SSE 8.7mph /  14.0km/h 11mph /  17.7km/h 98% 0.01in /  0.3mm
15:17 44.4 °F /  6.9 °C 44.6 °F /  7.0 °C 29.8in /  1009.0hPa South 5.4mph /  8.7km/h 11mph /  17.7km/h 98% 0.01in /  0.3mm
15:20 44.4 °F /  6.9 °C 44.6 °F /  7.0 °C 29.8in /  1009.0hPa SSW 8.7mph /  14.0km/h 11mph /  17.7km/h 98% 0.01in /  0.3mm
15:23 44.4 °F /  6.9 °C 44.6 °F /  7.0 °C 29.8in /  1009.0hPa SSW 9.8mph /  15.8km/h 10.5mph /  16.9km/h 98% 0.01in /  0.3mm
15:25 44.4 °F /  6.9 °C 44.6 °F /  7.0 °C 29.8in /  1009.0hPa SSW 6.3mph /  10.1km/h 10.5mph /  16.9km/h 98% 0.01in /  0.3mm
15:31 44.4 °F /  6.9 °C 44.6 °F /  7.0 °C 29.8in /  1009.0hPa SSE 5.6mph /  9.0km/h 12.5mph /  20.1km/h 98% 0.01in /  0.3mm
15:33 44.4 °F /  6.9 °C 44.6 °F /  7.0 °C 29.8in /  1009.0hPa South 8.1mph /  13.0km/h 12.5mph /  20.1km/h 98% 0.01in /  0.3mm
15:34 44.4 °F /  6.9 °C 44.6 °F /  7.0 °C 29.8in /  1009.0hPa SSW 7.2mph /  11.6km/h 12.5mph /  20.1km/h 98% 0.01in /  0.3mm
15:39 44.2 °F /  6.8 °C 44.6 °F /  7.0 °C 29.8in /  1009.0hPa South 6.9mph /  11.1km/h 12.5mph /  20.1km/h 98% 0.01in /  0.3mm
15:40 44.2 °F /  6.8 °C 44.6 °F /  7.0 °C 29.8in /  1009.0hPa South 8.7mph /  14.0km/h 11mph /  17.7km/h 98% 0.01in /  0.3mm
15:43 44.2 °F /  6.8 °C 44.6 °F /  7.0 °C 29.8in /  1008.0hPa South 5.6mph /  9.0km/h 11mph /  17.7km/h 98% 0.01in /  0.3mm
15:48 44.2 °F /  6.8 °C 44.6 °F /  7.0 °C 29.8in /  1008.0hPa SSE 6mph /  9.7km/h 11mph /  17.7km/h 98% 0.01in /  0.3mm
15:53 44.2 °F /  6.8 °C 44.6 °F /  7.0 °C 29.8in /  1008.0hPa South 8.7mph /  14.0km/h 10.3mph /  16.6km/h 98% 0.01in /  0.3mm
15:54 44.2 °F /  6.8 °C 44.6 °F /  7.0 °C 29.8in /  1008.0hPa SSE 7.4mph /  11.9km/h 10.3mph /  16.6km/h 98% 0.01in /  0.3mm
15:59 44.2 °F /  6.8 °C 44.6 °F /  7.0 °C 29.7in /  1007.0hPa SSE 8.5mph /  13.7km/h 10.3mph /  16.6km/h 98% 0.02in /  0.5mm
16:04 44.2 °F /  6.8 °C 44.6 °F /  7.0 °C 29.7in /  1007.0hPa South 6.3mph /  10.1km/h 11.4mph /  18.3km/h 98% 0.02in /  0.5mm
16:10 44.2 °F /  6.8 °C 44.6 °F /  7.0 °C 29.7in /  1007.0hPa SSW 9.8mph /  15.8km/h 12.5mph /  20.1km/h 98% 0.02in /  0.5mm
16:12 44.2 °F /  6.8 °C 44.6 °F /  7.0 °C 29.7in /  1007.0hPa South 5.4mph /  8.7km/h 12.5mph /  20.1km/h 98% 0.01in /  0.3mm
16:17 44.2 °F /  6.8 °C 44.6 °F /  7.0 °C 29.7in /  1007.0hPa South 9.4mph /  15.1km/h 14.5mph /  23.3km/h 98% 0.01in /  0.3mm
16:22 44.2 °F /  6.8 °C 44.6 °F /  7.0 °C 29.7in /  1007.0hPa South 6mph /  9.7km/h 15.2mph /  24.5km/h 98% 0.01in /  0.3mm
16:23 44.2 °F /  6.8 °C 44.6 °F /  7.0 °C 29.7in /  1007.0hPa South 8.5mph /  13.7km/h 15.2mph /  24.5km/h 98% 0.01in /  0.3mm
16:28 44.2 °F /  6.8 °C 44.6 °F /  7.0 °C 29.7in /  1006.0hPa South 7.8mph /  12.6km/h 13.4mph /  21.6km/h 98% 0.01in /  0.3mm
16:30 44.2 °F /  6.8 °C 44.6 °F /  7.0 °C 29.7in /  1006.0hPa South 7.8mph /  12.6km/h 13.4mph /  21.6km/h 98% 0.01in /  0.3mm
16:35 44.2 °F /  6.8 °C 44.6 °F /  7.0 °C 29.7in /  1006.0hPa SSW 10.7mph /  17.2km/h 11.2mph /  18.0km/h 98% 0.02in /  0.5mm
16:36 44.2 °F /  6.8 °C 44.6 °F /  7.0 °C 29.7in /  1006.0hPa South 6mph /  9.7km/h 11.2mph /  18.0km/h 98% 0.02in /  0.5mm
16:41 44.4 °F /  6.9 °C 44.6 °F /  7.0 °C 29.7in /  1007.0hPa South 10.5mph /  16.9km/h 12.5mph /  20.1km/h 98% 0.02in /  0.5mm
16:45 44.4 °F /  6.9 °C 44.6 °F /  7.0 °C 29.7in /  1007.0hPa SSW 7.8mph /  12.6km/h 13.2mph /  21.2km/h 98% 0.02in /  0.5mm
16:50 44.6 °F /  7.0 °C 44.6 °F /  7.0 °C 29.7in /  1007.0hPa South 12.1mph /  19.5km/h 13.2mph /  21.2km/h 98% 0.02in /  0.5mm
16:55 44.6 °F /  7.0 °C 44.6 °F /  7.0 °C 29.7in /  1007.0hPa South 8.7mph /  14.0km/h 15.4mph /  24.8km/h 98% 0.02in /  0.5mm
16:56 44.6 °F /  7.0 °C 44.6 °F /  7.0 °C 29.7in /  1007.0hPa South 8.7mph /  14.0km/h 15.4mph /  24.8km/h 98% 0.01in /  0.3mm
17:01 44.6 °F /  7.0 °C 44.6 °F /  7.0 °C 29.7in /  1007.0hPa SSE 12.1mph /  19.5km/h 15.4mph /  24.8km/h 98% 0.01in /  0.3mm
17:06 44.8 °F /  7.1 °C 44.6 °F /  7.0 °C 29.7in /  1007.0hPa South 6.3mph /  10.1km/h 13mph /  20.9km/h 98% 0.01in /  0.3mm
17:09 44.8 °F /  7.1 °C 44.6 °F /  7.0 °C 29.7in /  1007.0hPa SSW 11mph /  17.7km/h 13.6mph /  21.9km/h 98% 0.01in /  0.3mm
17:14 44.8 °F /  7.1 °C 44.6 °F /  7.0 °C 29.7in /  1006.0hPa SSW 11.9mph /  19.1km/h 14.1mph /  22.7km/h 98% 0.01in /  0.3mm
17:17 45 °F /  7.2 °C 44.6 °F /  7.0 °C 29.7in /  1006.0hPa South 11mph /  17.7km/h 14.1mph /  22.7km/h 98% 0.01in /  0.3mm
17:21 45 °F /  7.2 °C 44.6 °F /  7.0 °C 29.7in /  1006.0hPa SSW 16.3mph /  26.2km/h 16.3mph /  26.2km/h 98% 0.01in /  0.3mm
17:23 45 °F /  7.2 °C 44.6 °F /  7.0 °C 29.7in /  1006.0hPa SSW 15.7mph /  25.3km/h 16.3mph /  26.2km/h 98% 0.01in /  0.3mm
17:28 45 °F /  7.2 °C 44.6 °F /  7.0 °C 29.7in /  1006.0hPa South 11.2mph /  18.0km/h 16.3mph /  26.2km/h 98% 0.01in /  0.3mm
17:29 45 °F /  7.2 °C 44.6 °F /  7.0 °C 29.7in /  1006.0hPa South 11.9mph /  19.1km/h 16.3mph /  26.2km/h 98% 0.01in /  0.3mm
17:34 45.1 °F /  7.3 °C 44.6 °F /  7.0 °C 29.7in /  1006.0hPa SSW 12.3mph /  19.8km/h 23.5mph /  37.8km/h 98% 0in /  0.0mm
17:37 45.1 °F /  7.3 °C 44.6 °F /  7.0 °C 29.7in /  1006.0hPa South 10.3mph /  16.6km/h 23.5mph /  37.8km/h 98% 0in /  0.0mm
17:40 45.1 °F /  7.3 °C 44.6 °F /  7.0 °C 29.7in /  1005.0hPa South 10.3mph /  16.6km/h 23.5mph /  37.8km/h 98% 0in /  0.0mm
17:46 45.1 °F /  7.3 °C 44.6 °F /  7.0 °C 29.7in /  1005.0hPa South 14.3mph /  23.0km/h 14.8mph /  23.8km/h 98% 0in /  0.0mm
17:51 45.1 °F /  7.3 °C 44.6 °F /  7.0 °C 29.7in /  1005.0hPa South 13.2mph /  21.2km/h 16.1mph /  25.9km/h 98% 0.01in /  0.3mm
17:52 45.1 °F /  7.3 °C 44.6 °F /  7.0 °C 29.7in /  1005.0hPa WSW 10.5mph /  16.9km/h 17.7mph /  28.5km/h 98% 0.01in /  0.3mm
17:57 45.3 °F /  7.4 °C 44.6 °F /  7.0 °C 29.7in /  1005.0hPa SSW 7.4mph /  11.9km/h 17.7mph /  28.5km/h 98% 0.01in /  0.3mm
18:02 45.3 °F /  7.4 °C 44.6 °F /  7.0 °C 29.7in /  1005.0hPa SSW 10.5mph /  16.9km/h 14.8mph /  23.8km/h 98% 0.01in /  0.3mm
18:03 45.3 °F /  7.4 °C 44.6 °F /  7.0 °C 29.7in /  1005.0hPa SSW 9.8mph /  15.8km/h 14.8mph /  23.8km/h 98% 0.01in /  0.3mm
18:12 45.5 °F /  7.5 °C 46.4 °F /  8.0 °C 29.7in /  1005.0hPa SW 7.8mph /  12.6km/h 17mph /  27.4km/h 98% 0.01in /  0.3mm
18:13 45.5 °F /  7.5 °C 46.4 °F /  8.0 °C 29.7in /  1005.0hPa SSW 6.5mph /  10.5km/h 17mph /  27.4km/h 98% 0.01in /  0.3mm
18:18 45.7 °F /  7.6 °C 46.4 °F /  8.0 °C 29.7in /  1005.0hPa SSW 10.1mph /  16.3km/h 17.7mph /  28.5km/h 98% 0.01in /  0.3mm
18:22 45.7 °F /  7.6 °C 46.4 °F /  8.0 °C 29.7in /  1005.0hPa SSW 10.7mph /  17.2km/h 17.7mph /  28.5km/h 98% 0.01in /  0.3mm
18:27 45.9 °F /  7.7 °C 46.4 °F /  8.0 °C 29.7in /  1005.0hPa SSW 8.1mph /  13.0km/h 15.7mph /  25.3km/h 98% 0.01in /  0.3mm
18:28 45.9 °F /  7.7 °C 46.4 °F /  8.0 °C 29.7in /  1005.0hPa SW 8.1mph /  13.0km/h 15.7mph /  25.3km/h 98% 0.01in /  0.3mm
18:33 46 °F /  7.8 °C 46.4 °F /  8.0 °C 29.7in /  1005.0hPa SSW 11mph /  17.7km/h 15.7mph /  25.3km/h 98% 0.01in /  0.3mm
18:34 46 °F /  7.8 °C 46.4 °F /  8.0 °C 29.7in /  1005.0hPa SW 7.6mph /  12.2km/h 15.7mph /  25.3km/h 98% 0.01in /  0.3mm
18:39 46 °F /  7.8 °C 46.4 °F /  8.0 °C 29.7in /  1005.0hPa SSW 6.3mph /  10.1km/h 12.3mph /  19.8km/h 98% 0.01in /  0.3mm
18:42 46.2 °F /  7.9 °C 46.4 °F /  8.0 °C 29.7in /  1005.0hPa SSW 12.1mph /  19.5km/h 13.2mph /  21.2km/h 98% 0.01in /  0.3mm
18:47 46.2 °F /  7.9 °C 46.4 °F /  8.0 °C 29.7in /  1005.0hPa SW 12.1mph /  19.5km/h 13.2mph /  21.2km/h 98% 0.01in /  0.3mm
18:49 46.2 °F /  7.9 °C 46.4 °F /  8.0 °C 29.7in /  1005.0hPa SW 6.5mph /  10.5km/h 13.2mph /  21.2km/h 98% 0.01in /  0.3mm
18:52 46.4 °F /  8.0 °C 46.4 °F /  8.0 °C 29.7in /  1005.0hPa SSW 7.8mph /  12.6km/h 12.1mph /  19.5km/h 98% 0in /  0.0mm
18:57 46.4 °F /  8.0 °C 46.4 °F /  8.0 °C 29.7in /  1005.0hPa SSW 6mph /  9.7km/h 10.7mph /  17.2km/h 98% 0in /  0.0mm
19:00 46.6 °F /  8.1 °C 46.4 °F /  8.0 °C 29.7in /  1005.0hPa SSW 7.4mph /  11.9km/h 13mph /  20.9km/h 98% 0in /  0.0mm
19:02 46.6 °F /  8.1 °C 46.4 °F /  8.0 °C 29.7in /  1005.0hPa SW 6mph /  9.7km/h 13mph /  20.9km/h 98% 0in /  0.0mm
19:06 46.6 °F /  8.1 °C 46.4 °F /  8.0 °C 29.7in /  1005.0hPa SSW 4.9mph /  7.9km/h 13mph /  20.9km/h 98% 0in /  0.0mm
19:11 46.8 °F /  8.2 °C 46.4 °F /  8.0 °C 29.6in /  1003.9hPa South 8.7mph /  14.0km/h 10.7mph /  17.2km/h 98% 0in /  0.0mm
19:16 46.9 °F /  8.3 °C 48.2 °F /  9.0 °C 29.6in /  1003.9hPa SW 9.6mph /  15.4km/h 10.7mph /  17.2km/h 98% 0in /  0.0mm
19:17 46.9 °F /  8.3 °C 48.2 °F /  9.0 °C 29.6in /  1003.9hPa SW 8.5mph /  13.7km/h 10.7mph /  17.2km/h 98% 0in /  0.0mm
19:19 46.9 °F /  8.3 °C 48.2 °F /  9.0 °C 29.6in /  1003.9hPa SSW 8.7mph /  14.0km/h 10.7mph /  17.2km/h 98% 0in /  0.0mm
19:24 47.1 °F /  8.4 °C 48.2 °F /  9.0 °C 29.6in /  1003.9hPa SSW 4.3mph /  6.9km/h 11mph /  17.7km/h 98% 0in /  0.0mm
19:25 47.1 °F /  8.4 °C 48.2 °F /  9.0 °C 29.6in /  1003.9hPa SSW 5.8mph /  9.3km/h 11mph /  17.7km/h 98% 0in /  0.0mm
19:30 47.1 °F /  8.4 °C 48.2 °F /  9.0 °C 29.6in /  1003.9hPa SW 6mph /  9.7km/h 11mph /  17.7km/h 98% 0in /  0.0mm
19:32 47.1 °F /  8.4 °C 48.2 °F /  9.0 °C 29.6in /  1003.9hPa SSW 6mph /  9.7km/h 8.5mph /  13.7km/h 98% 0in /  0.0mm
19:37 47.3 °F /  8.5 °C 48.2 °F /  9.0 °C 29.6in /  1003.9hPa SSW 4.9mph /  7.9km/h 7.8mph /  12.6km/h 98% 0in /  0.0mm
19:42 47.3 °F /  8.5 °C 48.2 °F /  9.0 °C 29.6in /  1002.9hPa South 6mph /  9.7km/h 7.6mph /  12.2km/h 98% 0in /  0.0mm
19:43 47.3 °F /  8.5 °C 48.2 °F /  9.0 °C 29.6in /  1002.9hPa SSW 6.3mph /  10.1km/h 7.6mph /  12.2km/h 98% 0in /  0.0mm
19:48 47.5 °F /  8.6 °C 48.2 °F /  9.0 °C 29.6in /  1002.9hPa SW 5.4mph /  8.7km/h 9.6mph /  15.4km/h 98% 0in /  0.0mm
19:50 47.5 °F /  8.6 °C 48.2 °F /  9.0 °C 29.6in /  1002.9hPa SSW 5.4mph /  8.7km/h 9.6mph /  15.4km/h 98% 0in /  0.0mm
19:54 47.7 °F /  8.7 °C 48.2 °F /  9.0 °C 29.6in /  1002.9hPa SSW 4.3mph /  6.9km/h 9.6mph /  15.4km/h 98% 0in /  0.0mm
19:59 47.7 °F /  8.7 °C 48.2 °F /  9.0 °C 29.6in /  1002.9hPa SSW 3.1mph /  5.0km/h 7.6mph /  12.2km/h 98% 0in /  0.0mm
20:06 47.8 °F /  8.8 °C 48.2 °F /  9.0 °C 29.6in /  1002.9hPa SSW 6.3mph /  10.1km/h 8.1mph /  13.0km/h 98% 0in /  0.0mm
20:12 48 °F /  8.9 °C 48.2 °F /  9.0 °C 29.6in /  1002.9hPa SW 5.4mph /  8.7km/h 8.7mph /  14.0km/h 98% 0in /  0.0mm
20:17 48.2 °F /  9.0 °C 48.2 °F /  9.0 °C 29.6in /  1002.9hPa SW 6.5mph /  10.5km/h 8.7mph /  14.0km/h 98% 0in /  0.0mm
20:20 48.4 °F /  9.1 °C 48.2 °F /  9.0 °C 29.6in /  1002.9hPa SW 6mph /  9.7km/h 8.7mph /  14.0km/h 98% 0in /  0.0mm
20:25 48.6 °F /  9.2 °C 48.2 °F /  9.0 °C 29.6in /  1002.9hPa WSW 5.6mph /  9.0km/h 7.6mph /  12.2km/h 98% 0in /  0.0mm
20:26 48.6 °F /  9.2 °C 48.2 °F /  9.0 °C 29.6in /  1002.9hPa SSW 4.9mph /  7.9km/h 7.6mph /  12.2km/h 98% 0in /  0.0mm
20:31 48.7 °F /  9.3 °C 48.2 °F /  9.0 °C 29.6in /  1002.9hPa SSW 5.6mph /  9.0km/h 9.2mph /  14.8km/h 98% 0in /  0.0mm
20:36 48.9 °F /  9.4 °C 48.2 °F /  9.0 °C 29.6in /  1002.9hPa SSW 8.5mph /  13.7km/h 9.2mph /  14.8km/h 98% 0in /  0.0mm
20:41 49.1 °F /  9.5 °C 50 °F /  10.0 °C 29.6in /  1002.9hPa South 7.8mph /  12.6km/h 8.5mph /  13.7km/h 98% 0in /  0.0mm
20:43 49.1 °F /  9.5 °C 50 °F /  10.0 °C 29.6in /  1002.9hPa SW 5.8mph /  9.3km/h 8.5mph /  13.7km/h 98% 0in /  0.0mm
20:46 49.3 °F /  9.6 °C 50 °F /  10.0 °C 29.6in /  1002.9hPa WSW 6.3mph /  10.1km/h 8.5mph /  13.7km/h 98% 0in /  0.0mm
20:48 49.5 °F /  9.7 °C 50 °F /  10.0 °C 29.6in /  1002.9hPa SW 5.6mph /  9.0km/h 8.7mph /  14.0km/h 98% 0in /  0.0mm
20:53 49.6 °F /  9.8 °C 50 °F /  10.0 °C 29.6in /  1002.9hPa SW 6.5mph /  10.5km/h 8.7mph /  14.0km/h 98% 0in /  0.0mm
20:56 49.6 °F /  9.8 °C 50 °F /  10.0 °C 29.6in /  1002.9hPa WSW 4mph /  6.4km/h 8.7mph /  14.0km/h 98% 0in /  0.0mm
21:01 50 °F /  10.0 °C 50 °F /  10.0 °C 29.6in /  1002.9hPa SW 7.2mph /  11.6km/h 8.5mph /  13.7km/h 98% 0in /  0.0mm
21:04 50 °F /  10.0 °C 50 °F /  10.0 °C 29.6in /  1002.9hPa SW 8.5mph /  13.7km/h 8.9mph /  14.3km/h 98% 0in /  0.0mm
21:09 50.4 °F /  10.2 °C 50 °F /  10.0 °C 29.6in /  1002.9hPa SSW 6.3mph /  10.1km/h 10.5mph /  16.9km/h 98% 0in /  0.0mm
21:10 50.4 °F /  10.2 °C 50 °F /  10.0 °C 29.6in /  1002.9hPa SW 5.8mph /  9.3km/h 10.5mph /  16.9km/h 98% 0in /  0.0mm
21:14 50.5 °F /  10.3 °C 50 °F /  10.0 °C 29.6in /  1001.9hPa WSW 10.5mph /  16.9km/h 10.5mph /  16.9km/h 98% 0in /  0.0mm
21:19 50.7 °F /  10.4 °C 50 °F /  10.0 °C 29.6in /  1001.9hPa SW 6mph /  9.7km/h 14.5mph /  23.3km/h 98% 0in /  0.0mm
21:20 50.7 °F /  10.4 °C 50 °F /  10.0 °C 29.6in /  1001.9hPa WSW 7.6mph /  12.2km/h 14.5mph /  23.3km/h 98% 0in /  0.0mm
21:25 50.7 °F /  10.4 °C 50 °F /  10.0 °C 29.6in /  1001.9hPa SW 7.6mph /  12.2km/h 10.7mph /  17.2km/h 98% 0in /  0.0mm
21:26 50.7 °F /  10.4 °C 50 °F /  10.0 °C 29.6in /  1001.9hPa SW 9.8mph /  15.8km/h 10.7mph /  17.2km/h 98% 0in /  0.0mm
21:31 50.7 °F /  10.4 °C 50 °F /  10.0 °C 29.6in /  1001.9hPa SW 8.1mph /  13.0km/h 11mph /  17.7km/h 98% 0in /  0.0mm
21:36 50.7 °F /  10.4 °C 50 °F /  10.0 °C 29.6in /  1001.9hPa SSW 7.8mph /  12.6km/h 11mph /  17.7km/h 98% 0in /  0.0mm
21:37 50.9 °F /  10.5 °C 51.8 °F /  11.0 °C 29.6in /  1001.9hPa WSW 11mph /  17.7km/h 11mph /  17.7km/h 98% 0in /  0.0mm
21:42 50.9 °F /  10.5 °C 51.8 °F /  11.0 °C 29.6in /  1000.9hPa WSW 8.1mph /  13.0km/h 12.1mph /  19.5km/h 98% 0in /  0.0mm
21:47 50.9 °F /  10.5 °C 51.8 °F /  11.0 °C 29.6in /  1000.9hPa WSW 11mph /  17.7km/h 12.1mph /  19.5km/h 98% 0in /  0.0mm
21:53 51.1 °F /  10.6 °C 51.8 °F /  11.0 °C 29.6in /  1000.9hPa SW 9.8mph /  15.8km/h 13.4mph /  21.6km/h 98% 0in /  0.0mm
21:54 51.1 °F /  10.6 °C 51.8 °F /  11.0 °C 29.6in /  1000.9hPa SSW 10.7mph /  17.2km/h 13.4mph /  21.6km/h 98% 0in /  0.0mm
21:59 51.3 °F /  10.7 °C 51.8 °F /  11.0 °C 29.6in /  1001.9hPa SW 7.8mph /  12.6km/h 13.4mph /  21.6km/h 98% 0in /  0.0mm
22:04 51.3 °F /  10.7 °C 51.8 °F /  11.0 °C 29.6in /  1001.9hPa WSW 13mph /  20.9km/h 15.9mph /  25.6km/h 98% 0in /  0.0mm
22:06 51.3 °F /  10.7 °C 51.8 °F /  11.0 °C 29.6in /  1001.9hPa WSW 8.5mph /  13.7km/h 15.9mph /  25.6km/h 98% 0in /  0.0mm
22:11 51.4 °F /  10.8 °C 51.8 °F /  11.0 °C 29.6in /  1000.9hPa SW 7.8mph /  12.6km/h 17.7mph /  28.5km/h 98% 0in /  0.0mm
22:12 51.4 °F /  10.8 °C 51.8 °F /  11.0 °C 29.6in /  1000.9hPa SSW 11.2mph /  18.0km/h 17.7mph /  28.5km/h 98% 0in /  0.0mm
22:17 51.6 °F /  10.9 °C 51.8 °F /  11.0 °C 29.6in /  1000.9hPa WSW 12.5mph /  20.1km/h 17.7mph /  28.5km/h 98% 0in /  0.0mm
22:22 51.6 °F /  10.9 °C 51.8 °F /  11.0 °C 29.6in /  1000.9hPa WSW 12.3mph /  19.8km/h 19.5mph /  31.4km/h 98% 0in /  0.0mm
22:25 51.8 °F /  11.0 °C 51.8 °F /  11.0 °C 29.6in /  1000.9hPa WSW 8.7mph /  14.0km/h 19.5mph /  31.4km/h 98% 0in /  0.0mm
22:30 51.8 °F /  11.0 °C 51.8 °F /  11.0 °C 29.6in /  1000.9hPa SSW 12.8mph /  20.6km/h 13.6mph /  21.9km/h 98% 0in /  0.0mm
22:33 51.8 °F /  11.0 °C 51.8 °F /  11.0 °C 29.6in /  1000.9hPa WSW 8.7mph /  14.0km/h 13.6mph /  21.9km/h 98% 0in /  0.0mm
22:36 51.8 °F /  11.0 °C 51.8 °F /  11.0 °C 29.6in /  1000.9hPa SW 15.2mph /  24.5km/h 15.2mph /  24.5km/h 98% 0in /  0.0mm
22:42 52 °F /  11.1 °C 51.8 °F /  11.0 °C 29.5in /  999.9hPa WSW 11.4mph /  18.3km/h 15.2mph /  24.5km/h 98% 0in /  0.0mm
22:47 52 °F /  11.1 °C 51.8 °F /  11.0 °C 29.5in /  999.9hPa WSW 11.9mph /  19.1km/h 14.5mph /  23.3km/h 98% 0in /  0.0mm
22:48 52 °F /  11.1 °C 51.8 °F /  11.0 °C 29.5in /  999.9hPa SSW 10.3mph /  16.6km/h 14.5mph /  23.3km/h 98% 0in /  0.0mm
22:54 52 °F /  11.1 °C 51.8 °F /  11.0 °C 29.5in /  999.9hPa SSW 12.5mph /  20.1km/h 14.5mph /  23.3km/h 97% 0in /  0.0mm
22:55 52 °F /  11.1 °C 51.8 °F /  11.0 °C 29.5in /  999.9hPa SSW 10.3mph /  16.6km/h 14.5mph /  23.3km/h 97% 0in /  0.0mm
22:59 52 °F /  11.1 °C 51.8 °F /  11.0 °C 29.5in /  997.9hPa SSW 9.8mph /  15.8km/h 14.8mph /  23.8km/h 97% 0in /  0.0mm
23:04 52 °F /  11.1 °C 51.8 °F /  11.0 °C 29.5in /  997.9hPa SSW 10.7mph /  17.2km/h 16.8mph /  27.0km/h 97% 0in /  0.0mm
23:06 52 °F /  11.1 °C 51.8 °F /  11.0 °C 29.5in /  997.9hPa SW 12.8mph /  20.6km/h 16.8mph /  27.0km/h 97% 0in /  0.0mm
23:10 52 °F /  11.1 °C 51.8 °F /  11.0 °C 29.5in /  997.9hPa SW 13mph /  20.9km/h 16.8mph /  27.0km/h 96% 0in /  0.0mm
23:12 52 °F /  11.1 °C 51.8 °F /  11.0 °C 29.5in /  998.9hPa SW 8.1mph /  13.0km/h 16.8mph /  27.0km/h 96% 0in /  0.0mm
23:16 51.8 °F /  11.0 °C 51.8 °F /  11.0 °C 29.5in /  998.9hPa WSW 10.5mph /  16.9km/h 13.4mph /  21.6km/h 96% 0in /  0.0mm
23:19 51.8 °F /  11.0 °C 51.8 °F /  11.0 °C 29.5in /  998.9hPa SW 8.1mph /  13.0km/h 15.7mph /  25.3km/h 96% 0in /  0.0mm
23:24 51.8 °F /  11.0 °C 51.8 °F /  11.0 °C 29.5in /  998.9hPa SW 10.3mph /  16.6km/h 15.7mph /  25.3km/h 96% 0in /  0.0mm
23:29 51.8 °F /  11.0 °C 50 °F /  10.0 °C 29.5in /  997.9hPa SSW 7.2mph /  11.6km/h 15.4mph /  24.8km/h 95% 0in /  0.0mm
23:31 51.8 °F /  11.0 °C 50 °F /  10.0 °C 29.5in /  997.9hPa SW 8.1mph /  13.0km/h 15.4mph /  24.8km/h 95% 0in /  0.0mm
23:37 52 °F /  11.1 °C 50 °F /  10.0 °C 29.5in /  997.9hPa SW 10.3mph /  16.6km/h 14.8mph /  23.8km/h 95% 0in /  0.0mm
23:38 52 °F /  11.1 °C 50 °F /  10.0 °C 29.5in /  997.9hPa SSW 8.9mph /  14.3km/h 14.8mph /  23.8km/h 95% 0in /  0.0mm
23:43 51.8 °F /  11.0 °C 50 °F /  10.0 °C 29.5in /  997.9hPa SSW 7.4mph /  11.9km/h 14.8mph /  23.8km/h 95% 0in /  0.0mm
23:48 51.6 °F /  10.9 °C 51.8 °F /  11.0 °C 29.5in /  997.9hPa SSW 7.8mph /  12.6km/h 12.3mph /  19.8km/h 96% 0in /  0.0mm
23:49 51.6 °F /  10.9 °C 51.8 °F /  11.0 °C 29.5in /  997.9hPa SSW 5.6mph /  9.0km/h 12.3mph /  19.8km/h 96% 0in /  0.0mm
23:50 51.6 °F /  10.9 °C 51.8 °F /  11.0 °C 29.5in /  997.9hPa SSW 4.9mph /  7.9km/h 12.3mph /  19.8km/h 96% 0in /  0.0mm
23:55 51.6 °F /  10.9 °C 51.8 °F /  11.0 °C 29.5in /  997.9hPa SSW 6.5mph /  10.5km/h 13.2mph /  21.2km/h 96% 0in /  0.0mm
23:58 51.6 °F /  10.9 °C 51.8 °F /  11.0 °C 29.4in /  996.2hPa South 7.6mph /  12.2km/h 13.2mph /  21.2km/h 96% 0in /  0.0mm
Données Historique de Météo Turbie

Mise a jour : 26/05/2018 16:06:13
Généré par Cumulus 1.9.4 (1099)